Kyle, South Dakota
Current Conditions -  °F | °C
As of 7:52 PM on Saturday 25 Oct 2014 (Local Time) from KIEN Reporting Station
Clear Clear  
Wind Chill: 59°   Ceiling: Unl
Heat Index: 59°   Visibility: 10mi
Dew Point: 37°   Wind: 7mph
Humidity: 44%   Direction: 80°E
Pressure: 29.94"   Gusts: NA
Location:  43.43°N, 102.17°W
Report Text: KIEN 260152Z AUTO 08006KT 10SM CLR 15/03 A2994 RMK AO2 SLP146 T01500028
Loading
Personal Weather Stations






























Interactive Weather Map
Tropical Storm Tracking
New forecast layout! Learn more

10-Day Weather Forecast

Advertisements
Track Severe Weather on mobile